createdAt,value
2019-03-31T00:00:01.578Z,1021.11
2019-03-31T00:00:27.577Z,1021.09
2019-03-31T00:00:53.579Z,1021.09
2019-03-31T00:01:19.931Z,1021.08
2019-03-31T00:01:45.588Z,1021.08
2019-03-31T00:02:11.697Z,1021.11
2019-03-31T00:02:37.595Z,1021.1
2019-03-31T00:03:03.584Z,1021.1
2019-03-31T00:03:29.574Z,1021.12
2019-03-31T00:03:55.577Z,1021.1
2019-03-31T00:04:21.593Z,1021.12
2019-03-31T00:04:47.666Z,1021.1
2019-03-31T00:05:13.583Z,1021.09
2019-03-31T00:05:39.586Z,1021.11
2019-03-31T00:06:05.586Z,1021.09
2019-03-31T00:06:31.586Z,1021.09
2019-03-31T00:06:57.587Z,1021.09
2019-03-31T00:07:23.597Z,1021.12
2019-03-31T00:07:49.659Z,1021.1
2019-03-31T00:08:15.578Z,1021.1
2019-03-31T00:08:41.583Z,1021.11
2019-03-31T00:09:07.591Z,1021.1
2019-03-31T00:09:33.591Z,1021.11
2019-03-31T00:09:59.597Z,1021.11
2019-03-31T00:10:25.663Z,1021.12
2019-03-31T00:10:51.589Z,1021.13
2019-03-31T00:11:17.593Z,1021.13
2019-03-31T00:11:43.632Z,1021.12
2019-03-31T00:12:09.595Z,1021.1
2019-03-31T00:12:35.611Z,1021.12
2019-03-31T00:13:01.586Z,1021.11
2019-03-31T00:13:27.671Z,1021.12
2019-03-31T00:13:53.595Z,1021.12
2019-03-31T00:14:19.604Z,1021.1
2019-03-31T00:14:45.597Z,1021.13
2019-03-31T00:15:11.600Z,1021.15
2019-03-31T00:15:37.608Z,1021.12
2019-03-31T00:16:03.687Z,1021.13
2019-03-31T00:16:29.596Z,1021.14
2019-03-31T00:16:55.600Z,1021.17
2019-03-31T00:17:21.603Z,1021.18
2019-03-31T00:17:47.597Z,1021.16
2019-03-31T00:18:13.598Z,1021.17
2019-03-31T00:18:39.599Z,1021.19
2019-03-31T00:19:05.604Z,1021.18
2019-03-31T00:19:31.599Z,1021.21
2019-03-31T00:19:57.604Z,1021.2
2019-03-31T00:20:23.609Z,1021.23
2019-03-31T00:20:49.604Z,1021.21
2019-03-31T00:21:15.605Z,1021.25
2019-03-31T00:21:41.608Z,1021.22
2019-03-31T00:22:07.612Z,1021.2
2019-03-31T00:22:33.604Z,1021.21
2019-03-31T00:22:59.605Z,1021.25
2019-03-31T00:23:25.607Z,1021.24
2019-03-31T00:23:51.605Z,1021.24
2019-03-31T00:24:17.609Z,1021.25
2019-03-31T00:24:43.617Z,1021.23
2019-03-31T00:25:09.613Z,1021.24
2019-03-31T00:25:35.616Z,1021.27
2019-03-31T00:26:01.613Z,1021.25
2019-03-31T00:26:27.618Z,1021.24
2019-03-31T00:26:53.616Z,1021.27
2019-03-31T00:27:19.613Z,1021.28
2019-03-31T00:27:45.613Z,1021.27
2019-03-31T00:28:11.618Z,1021.31
2019-03-31T00:28:37.618Z,1021.29
2019-03-31T00:29:03.656Z,1021.32
2019-03-31T00:29:29.692Z,1021.34
2019-03-31T00:29:55.613Z,1021.36
2019-03-31T00:30:21.626Z,1021.35
2019-03-31T00:30:47.619Z,1021.36
2019-03-31T00:31:13.621Z,1021.37
2019-03-31T00:31:39.635Z,1021.36
2019-03-31T00:32:05.692Z,1021.37
2019-03-31T00:32:31.634Z,1021.39
2019-03-31T00:32:57.620Z,1021.37
2019-03-31T00:33:23.640Z,1021.34
2019-03-31T00:33:49.627Z,1021.35
2019-03-31T00:34:15.632Z,1021.33
2019-03-31T00:34:41.747Z,1021.34
2019-03-31T00:35:07.627Z,1021.31
2019-03-31T00:35:33.625Z,1021.32
2019-03-31T00:35:59.629Z,1021.33
2019-03-31T00:36:25.631Z,1021.35
2019-03-31T00:36:51.632Z,1021.35
2019-03-31T00:37:17.707Z,1021.35
2019-03-31T00:37:43.635Z,1021.36
2019-03-31T00:38:09.628Z,1021.37
2019-03-31T00:38:35.709Z,1021.4
2019-03-31T00:39:01.632Z,1021.38
2019-03-31T00:39:27.657Z,1021.37
2019-03-31T00:39:53.713Z,1021.41
2019-03-31T00:40:19.633Z,1021.43
2019-03-31T00:40:45.654Z,1021.42
2019-03-31T00:41:11.637Z,1021.42
2019-03-31T00:41:37.634Z,1021.4
2019-03-31T00:42:03.642Z,1021.38
2019-03-31T00:42:29.715Z,1021.41
2019-03-31T00:42:55.632Z,1021.39
2019-03-31T00:43:21.975Z,1021.37
2019-03-31T00:43:47.642Z,1021.4
2019-03-31T00:44:13.645Z,1021.37
2019-03-31T00:44:39.649Z,1021.41
2019-03-31T00:45:05.708Z,1021.44
2019-03-31T00:45:31.641Z,1021.43
2019-03-31T00:45:57.645Z,1021.44
2019-03-31T00:46:23.643Z,1021.43
2019-03-31T00:46:49.643Z,1021.43
2019-03-31T00:47:15.651Z,1021.4
2019-03-31T00:47:41.758Z,1021.38
2019-03-31T00:48:07.642Z,1021.43
2019-03-31T00:48:33.647Z,1021.42
2019-03-31T00:48:59.647Z,1021.4
2019-03-31T00:49:25.646Z,1021.42
2019-03-31T00:49:51.655Z,1021.42
2019-03-31T00:50:17.727Z,1021.44
2019-03-31T00:50:43.655Z,1021.43
2019-03-31T00:51:09.645Z,1021.46
2019-03-31T00:51:35.648Z,1021.44
2019-03-31T00:52:01.651Z,1021.44
2019-03-31T00:52:27.659Z,1021.44
2019-03-31T00:52:53.726Z,1021.44
2019-03-31T00:53:19.651Z,1021.45
2019-03-31T00:53:45.653Z,1021.48
2019-03-31T00:54:11.649Z,1021.47
2019-03-31T00:54:37.654Z,1021.47
2019-03-31T00:55:03.716Z,1021.44
2019-03-31T00:55:29.732Z,1021.48
2019-03-31T00:55:55.646Z,1021.47
2019-03-31T00:56:21.666Z,1021.44
2019-03-31T00:56:47.659Z,1021.43
2019-03-31T00:57:13.657Z,1021.45
2019-03-31T00:57:39.663Z,1021.46
2019-03-31T00:58:05.733Z,1021.47
2019-03-31T00:58:31.655Z,1021.47
2019-03-31T00:58:57.660Z,1021.5
2019-03-31T00:59:23.660Z,1021.48
2019-03-31T00:59:49.662Z,1021.47
2019-03-31T01:00:15.656Z,1021.47
2019-03-31T01:00:41.656Z,1021.47
2019-03-31T01:01:07.708Z,1021.51
2019-03-31T01:01:34.340Z,1021.49
2019-03-31T01:01:59.665Z,1021.47
2019-03-31T01:02:25.662Z,1021.47
2019-03-31T01:02:51.667Z,1021.46
2019-03-31T01:03:17.664Z,1021.47
2019-03-31T01:03:43.741Z,1021.51
2019-03-31T01:04:09.667Z,1021.48
2019-03-31T01:04:35.670Z,1021.48
2019-03-31T01:05:01.670Z,1021.5
2019-03-31T01:05:27.662Z,1021.48
2019-03-31T01:05:53.683Z,1021.5
2019-03-31T01:06:19.742Z,1021.49
2019-03-31T01:06:45.668Z,1021.48
2019-03-31T01:07:11.667Z,1021.49
2019-03-31T01:07:37.677Z,1021.5
2019-03-31T01:08:03.678Z,1021.49
2019-03-31T01:08:29.683Z,1021.5
2019-03-31T01:08:55.749Z,1021.46
2019-03-31T01:09:21.677Z,1021.47
2019-03-31T01:09:47.682Z,1021.48
2019-03-31T01:10:13.669Z,1021.51
2019-03-31T01:10:39.677Z,1021.47
2019-03-31T01:11:05.687Z,1021.45
2019-03-31T01:11:31.794Z,1021.46
2019-03-31T01:11:57.677Z,1021.48
2019-03-31T01:12:23.682Z,1021.48
2019-03-31T01:12:49.692Z,1021.48
2019-03-31T01:13:15.678Z,1021.48
2019-03-31T01:13:41.688Z,1021.48
2019-03-31T01:14:07.756Z,1021.48
2019-03-31T01:14:33.688Z,1021.54
2019-03-31T01:14:59.686Z,1021.5
2019-03-31T01:15:25.683Z,1021.49
2019-03-31T01:15:51.684Z,1021.49
2019-03-31T01:16:17.696Z,1021.51
2019-03-31T01:16:43.761Z,1021.51
2019-03-31T01:17:09.687Z,1021.51
2019-03-31T01:17:35.691Z,1021.52
2019-03-31T01:18:01.684Z,1021.53
2019-03-31T01:18:27.692Z,1021.52
2019-03-31T01:18:53.694Z,1021.54
2019-03-31T01:19:19.760Z,1021.55
2019-03-31T01:19:45.684Z,1021.5
2019-03-31T01:20:11.688Z,1021.5
2019-03-31T01:20:37.692Z,1021.53
2019-03-31T01:21:03.694Z,1021.53
2019-03-31T01:21:29.699Z,1021.52
2019-03-31T01:21:55.762Z,1021.58
2019-03-31T01:22:21.691Z,1021.57
2019-03-31T01:22:47.691Z,1021.55
2019-03-31T01:23:13.697Z,1021.57
2019-03-31T01:23:39.704Z,1021.61
2019-03-31T01:24:05.714Z,1021.61
2019-03-31T01:24:31.814Z,1021.55
2019-03-31T01:24:57.696Z,1021.67
2019-03-31T01:25:23.696Z,1021.65
2019-03-31T01:25:49.695Z,1021.63
2019-03-31T01:26:15.695Z,1021.66
2019-03-31T01:26:43.475Z,1021.64
2019-03-31T01:27:07.788Z,1021.67
2019-03-31T01:27:33.701Z,1021.66
2019-03-31T01:27:59.704Z,1021.67
2019-03-31T01:28:25.700Z,1021.69
2019-03-31T01:28:51.708Z,1021.7
2019-03-31T01:29:17.704Z,1021.7
2019-03-31T01:29:43.778Z,1021.7
2019-03-31T01:30:09.701Z,1021.72
2019-03-31T01:30:35.703Z,1021.7
2019-03-31T01:31:01.702Z,1021.71
2019-03-31T01:31:27.704Z,1021.72
2019-03-31T01:31:53.711Z,1021.75
2019-03-31T01:32:19.721Z,1021.73
2019-03-31T01:32:45.708Z,1021.75
2019-03-31T01:33:11.706Z,1021.75
2019-03-31T01:33:37.707Z,1021.73
2019-03-31T01:34:03.704Z,1021.75
2019-03-31T01:34:29.709Z,1021.76
2019-03-31T01:34:55.709Z,1021.75
2019-03-31T01:35:21.706Z,1021.74
2019-03-31T01:35:47.711Z,1021.71
2019-03-31T01:36:13.715Z,1021.73
2019-03-31T01:36:39.717Z,1021.72
2019-03-31T01:37:05.712Z,1021.74
2019-03-31T01:37:31.707Z,1021.77
2019-03-31T01:37:57.716Z,1021.76
2019-03-31T01:38:23.718Z,1021.78
2019-03-31T01:38:49.712Z,1021.77
2019-03-31T01:39:15.720Z,1021.76
2019-03-31T01:39:41.721Z,1021.75
2019-03-31T01:40:07.717Z,1021.78
2019-03-31T01:40:33.716Z,1021.79
2019-03-31T01:40:59.723Z,1021.77
2019-03-31T01:41:25.720Z,1021.78
2019-03-31T01:41:51.718Z,1021.78
2019-03-31T01:42:17.723Z,1021.78
2019-03-31T01:42:43.720Z,1021.76
2019-03-31T01:43:09.713Z,1021.81
2019-03-31T01:43:35.715Z,1021.78
2019-03-31T01:44:01.725Z,1021.8
2019-03-31T01:44:27.727Z,1021.76
2019-03-31T01:44:53.721Z,1021.8
2019-03-31T01:45:19.722Z,1021.78
2019-03-31T01:45:45.722Z,1021.8
2019-03-31T01:46:11.722Z,1021.81
2019-03-31T01:46:37.728Z,1021.8
2019-03-31T01:47:03.946Z,1021.82
2019-03-31T01:47:29.728Z,1021.8
2019-03-31T01:47:55.719Z,1021.85
2019-03-31T01:48:21.726Z,1021.81
2019-03-31T01:48:47.733Z,1021.82
2019-03-31T01:49:13.729Z,1021.8
2019-03-31T01:49:39.734Z,1021.83
2019-03-31T01:50:05.732Z,1021.83
2019-03-31T01:50:31.731Z,1021.82
2019-03-31T01:50:57.739Z,1021.83
2019-03-31T01:51:23.731Z,1021.81
2019-03-31T01:51:49.735Z,1021.83
2019-03-31T01:52:15.735Z,1021.81
2019-03-31T01:52:41.732Z,1021.83
2019-03-31T01:53:07.731Z,1021.87
2019-03-31T01:53:33.731Z,1021.83
2019-03-31T01:53:59.744Z,1021.79
2019-03-31T01:54:25.734Z,1021.78
2019-03-31T01:54:51.737Z,1021.78
2019-03-31T01:55:17.738Z,1021.81
2019-03-31T01:55:43.735Z,1021.83
2019-03-31T01:56:09.737Z,1021.77
2019-03-31T01:56:35.738Z,1021.79
2019-03-31T01:57:01.742Z,1021.82
2019-03-31T01:57:27.737Z,1021.82
2019-03-31T01:57:53.738Z,1021.76
2019-03-31T01:58:19.744Z,1021.77
2019-03-31T01:58:45.739Z,1021.78
2019-03-31T01:59:11.739Z,1021.77
2019-03-31T01:59:37.746Z,1021.8
2019-03-31T02:00:03.748Z,1021.8
2019-03-31T02:00:29.748Z,1021.75
2019-03-31T02:00:55.741Z,1021.78
2019-03-31T02:01:21.776Z,1021.8
2019-03-31T02:01:47.750Z,1021.8
2019-03-31T02:02:13.745Z,1021.78
2019-03-31T02:02:39.747Z,1021.79
2019-03-31T02:03:05.749Z,1021.82
2019-03-31T02:03:31.747Z,1021.8
2019-03-31T02:03:57.752Z,1021.82
2019-03-31T02:04:23.750Z,1021.82
2019-03-31T02:04:49.758Z,1021.82
2019-03-31T02:05:15.750Z,1021.85
2019-03-31T02:05:41.751Z,1021.84
2019-03-31T02:06:07.758Z,1021.85
2019-03-31T02:06:33.755Z,1021.83
2019-03-31T02:06:59.756Z,1021.84
2019-03-31T02:07:25.759Z,1021.84
2019-03-31T02:07:51.758Z,1021.84
2019-03-31T02:08:17.760Z,1021.84
2019-03-31T02:08:43.751Z,1021.85
2019-03-31T02:09:09.759Z,1021.85
2019-03-31T02:09:35.757Z,1021.86
2019-03-31T02:10:01.759Z,1021.86
2019-03-31T02:10:27.759Z,1021.86
2019-03-31T02:10:53.762Z,1021.86
2019-03-31T02:11:19.759Z,1021.82
2019-03-31T02:11:45.755Z,1021.85
2019-03-31T02:12:11.757Z,1021.84
2019-03-31T02:12:37.762Z,1021.86
2019-03-31T02:13:03.764Z,1021.88
2019-03-31T02:13:29.764Z,1021.85
2019-03-31T02:13:55.764Z,1021.87
2019-03-31T02:14:21.763Z,1021.88
2019-03-31T02:14:47.767Z,1021.85
2019-03-31T02:15:13.763Z,1021.87
2019-03-31T02:15:39.766Z,1021.85
2019-03-31T02:16:05.772Z,1021.84
2019-03-31T02:16:31.763Z,1021.87
2019-03-31T02:16:57.766Z,1021.87
2019-03-31T02:17:23.774Z,1021.89
2019-03-31T02:17:49.775Z,1021.84
2019-03-31T02:18:15.770Z,1021.84
2019-03-31T02:18:41.771Z,1021.84
2019-03-31T02:19:07.775Z,1021.86
2019-03-31T02:19:33.769Z,1021.88
2019-03-31T02:19:59.772Z,1021.88
2019-03-31T02:20:25.775Z,1021.84
2019-03-31T02:20:51.778Z,1021.87
2019-03-31T02:21:17.771Z,1021.87
2019-03-31T02:21:43.770Z,1021.84
2019-03-31T02:22:09.771Z,1021.86
2019-03-31T02:22:35.822Z,1021.87
2019-03-31T02:23:01.790Z,1021.9
2019-03-31T02:23:27.778Z,1021.9
2019-03-31T02:23:53.782Z,1021.92
2019-03-31T02:24:19.774Z,1021.93
2019-03-31T02:24:45.780Z,1021.91
2019-03-31T02:25:11.775Z,1021.93
2019-03-31T02:25:37.782Z,1021.96
2019-03-31T02:26:03.776Z,1021.93
2019-03-31T02:26:29.778Z,1021.96
2019-03-31T02:26:55.778Z,1021.96
2019-03-31T02:27:21.782Z,1021.97
2019-03-31T02:27:47.783Z,1021.97
2019-03-31T02:28:13.786Z,1021.99
2019-03-31T02:28:39.787Z,1021.93
2019-03-31T02:29:05.785Z,1021.96
2019-03-31T02:29:31.795Z,1021.95
2019-03-31T02:29:57.795Z,1021.95
2019-03-31T02:30:23.791Z,1021.98
2019-03-31T02:30:49.785Z,1021.97
2019-03-31T02:31:15.787Z,1021.97
2019-03-31T02:31:41.786Z,1022
2019-03-31T02:32:07.792Z,1022.01
2019-03-31T02:32:33.784Z,1021.94
2019-03-31T02:32:59.794Z,1021.98
2019-03-31T02:33:25.809Z,1021.96
2019-03-31T02:33:51.793Z,1021.97
2019-03-31T02:34:17.947Z,1021.95
2019-03-31T02:34:43.795Z,1021.93
2019-03-31T02:35:09.866Z,1021.94
2019-03-31T02:35:35.792Z,1021.91
2019-03-31T02:36:01.799Z,1021.94
2019-03-31T02:36:27.793Z,1021.93
2019-03-31T02:36:53.798Z,1021.92
2019-03-31T02:37:19.806Z,1021.95
2019-03-31T02:37:45.870Z,1021.95
2019-03-31T02:38:11.798Z,1021.93
2019-03-31T02:38:37.795Z,1021.92
2019-03-31T02:39:03.799Z,1021.95
2019-03-31T02:39:29.804Z,1021.93
2019-03-31T02:39:55.813Z,1021.93
2019-03-31T02:40:21.934Z,1021.94
2019-03-31T02:40:47.800Z,1021.96
2019-03-31T02:41:13.806Z,1021.95
2019-03-31T02:41:39.804Z,1021.96
2019-03-31T02:42:05.804Z,1021.99
2019-03-31T02:42:31.811Z,1021.98
2019-03-31T02:42:57.884Z,1021.95
2019-03-31T02:43:23.806Z,1021.96
2019-03-31T02:43:49.814Z,1021.98
2019-03-31T02:44:15.809Z,1021.97
2019-03-31T02:44:41.808Z,1022
2019-03-31T02:45:07.812Z,1022
2019-03-31T02:45:33.887Z,1022.01
2019-03-31T02:45:59.816Z,1022.02
2019-03-31T02:46:25.807Z,1022
2019-03-31T02:46:51.810Z,1022.02
2019-03-31T02:47:17.813Z,1022
2019-03-31T02:47:43.822Z,1022.03
2019-03-31T02:48:09.879Z,1022.01
2019-03-31T02:48:35.813Z,1021.99
2019-03-31T02:49:01.814Z,1022.01
2019-03-31T02:49:27.817Z,1022.02
2019-03-31T02:49:53.813Z,1022.01
2019-03-31T02:50:19.823Z,1022.02
2019-03-31T02:50:45.893Z,1022.01
2019-03-31T02:51:11.813Z,1022.03
2019-03-31T02:51:37.816Z,1022.01
2019-03-31T02:52:03.821Z,1022.01
2019-03-31T02:52:29.822Z,1022
2019-03-31T02:52:55.827Z,1021.99
2019-03-31T02:53:21.941Z,1022
2019-03-31T02:53:47.824Z,1021.97
2019-03-31T02:54:13.826Z,1021.99
2019-03-31T02:54:39.823Z,1021.96
2019-03-31T02:55:05.823Z,1021.94
2019-03-31T02:55:31.829Z,1021.95
2019-03-31T02:55:57.912Z,1021.93
2019-03-31T02:56:23.822Z,1021.93
2019-03-31T02:56:49.828Z,1021.93
2019-03-31T02:57:15.825Z,1021.94
2019-03-31T02:57:41.830Z,1021.93
2019-03-31T02:58:07.836Z,1021.91
2019-03-31T02:58:33.908Z,1021.96
2019-03-31T02:58:59.817Z,1021.95
2019-03-31T02:59:25.830Z,1021.93
2019-03-31T02:59:51.829Z,1021.92
2019-03-31T03:00:17.831Z,1021.93
2019-03-31T03:00:43.839Z,1021.93
2019-03-31T03:01:10.088Z,1021.91
2019-03-31T03:01:35.835Z,1021.93
2019-03-31T03:02:01.828Z,1021.91
2019-03-31T03:02:27.835Z,1021.91
2019-03-31T03:02:53.833Z,1021.91
2019-03-31T03:03:19.847Z,1021.9
2019-03-31T03:03:45.907Z,1021.9
2019-03-31T03:04:11.833Z,1021.88
2019-03-31T03:04:37.834Z,1021.91
2019-03-31T03:05:03.835Z,1021.92
2019-03-31T03:05:29.842Z,1021.91
2019-03-31T03:05:55.848Z,1021.9
2019-03-31T03:06:21.958Z,1021.92
2019-03-31T03:06:47.843Z,1021.91
2019-03-31T03:07:13.838Z,1021.95
2019-03-31T03:07:39.842Z,1021.95
2019-03-31T03:08:06.032Z,1021.96
2019-03-31T03:08:31.853Z,1021.95
2019-03-31T03:08:57.922Z,1021.95
2019-03-31T03:09:23.843Z,1021.96
2019-03-31T03:09:49.846Z,1021.98
2019-03-31T03:10:15.845Z,1021.96
2019-03-31T03:10:41.843Z,1021.96
2019-03-31T03:11:07.851Z,1021.96
2019-03-31T03:11:33.946Z,1021.98
2019-03-31T03:11:59.843Z,1021.99
2019-03-31T03:12:25.850Z,1022.02
2019-03-31T03:12:51.851Z,1022.01
2019-03-31T03:13:17.854Z,1022.01
2019-03-31T03:13:43.855Z,1022.02
2019-03-31T03:14:09.926Z,1022
2019-03-31T03:14:35.855Z,1022.04
2019-03-31T03:15:01.847Z,1022.05
2019-03-31T03:15:27.848Z,1022.04
2019-03-31T03:15:53.854Z,1022.04
2019-03-31T03:16:19.864Z,1022.04
2019-03-31T03:16:45.920Z,1022.04
2019-03-31T03:17:11.876Z,1022.04
2019-03-31T03:17:37.857Z,1022.03
2019-03-31T03:18:03.861Z,1022.04
2019-03-31T03:18:29.850Z,1022.03
2019-03-31T03:18:55.862Z,1022.04
2019-03-31T03:19:21.976Z,1022.05
2019-03-31T03:19:47.856Z,1022.04
2019-03-31T03:20:13.856Z,1022.02
2019-03-31T03:20:39.858Z,1022.02
2019-03-31T03:21:05.864Z,1022.04
2019-03-31T03:21:31.869Z,1022.05
2019-03-31T03:21:57.949Z,1022.08
2019-03-31T03:22:23.864Z,1022.06
2019-03-31T03:22:49.870Z,1022.09
2019-03-31T03:23:15.857Z,1022.11
2019-03-31T03:23:41.863Z,1022.1
2019-03-31T03:24:07.876Z,1022.08
2019-03-31T03:24:33.943Z,1022.11
2019-03-31T03:24:59.864Z,1022.11
2019-03-31T03:25:25.868Z,1022.12
2019-03-31T03:25:51.870Z,1022.13
2019-03-31T03:26:18.740Z,1022.15
2019-03-31T03:26:43.891Z,1022.15
2019-03-31T03:27:09.939Z,1022.12
2019-03-31T03:27:35.872Z,1022.13
2019-03-31T03:28:01.864Z,1022.14
2019-03-31T03:28:27.870Z,1022.14
2019-03-31T03:28:53.870Z,1022.17
2019-03-31T03:29:19.875Z,1022.15
2019-03-31T03:29:45.938Z,1022.15
2019-03-31T03:30:11.879Z,1022.18
2019-03-31T03:30:37.876Z,1022.2
2019-03-31T03:31:03.872Z,1022.17
2019-03-31T03:31:29.874Z,1022.2
2019-03-31T03:31:55.883Z,1022.15
2019-03-31T03:32:21.993Z,1022.18
2019-03-31T03:32:48.065Z,1022.19
2019-03-31T03:33:13.880Z,1022.17
2019-03-31T03:33:39.872Z,1022.17
2019-03-31T03:34:05.876Z,1022.17
2019-03-31T03:34:31.884Z,1022.18
2019-03-31T03:34:57.962Z,1022.18
2019-03-31T03:35:23.885Z,1022.18
2019-03-31T03:35:49.879Z,1022.17
2019-03-31T03:36:15.883Z,1022.19
2019-03-31T03:36:41.881Z,1022.21
2019-03-31T03:37:07.900Z,1022.19
2019-03-31T03:37:33.966Z,1022.19
2019-03-31T03:37:59.884Z,1022.18
2019-03-31T03:38:25.883Z,1022.2
2019-03-31T03:38:51.888Z,1022.21
2019-03-31T03:39:17.886Z,1022.23
2019-03-31T03:39:43.894Z,1022.23
2019-03-31T03:40:09.954Z,1022.24
2019-03-31T03:40:35.919Z,1022.22
2019-03-31T03:41:02.117Z,1022.23
2019-03-31T03:41:27.888Z,1022.25
2019-03-31T03:41:53.887Z,1022.26
2019-03-31T03:42:19.894Z,1022.26
2019-03-31T03:42:45.966Z,1022.24
2019-03-31T03:43:11.904Z,1022.28
2019-03-31T03:43:37.894Z,1022.23
2019-03-31T03:44:03.891Z,1022.24
2019-03-31T03:44:29.891Z,1022.26
2019-03-31T03:44:55.906Z,1022.26
2019-03-31T03:45:22.018Z,1022.26
2019-03-31T03:45:48.153Z,1022.25
2019-03-31T03:46:13.898Z,1022.25
2019-03-31T03:46:39.892Z,1022.29
2019-03-31T03:47:05.896Z,1022.27
2019-03-31T03:47:31.908Z,1022.29
2019-03-31T03:47:57.980Z,1022.27
2019-03-31T03:48:23.897Z,1022.28
2019-03-31T03:48:49.909Z,1022.31
2019-03-31T03:49:15.898Z,1022.31
2019-03-31T03:49:41.899Z,1022.29
2019-03-31T03:50:07.907Z,1022.28
2019-03-31T03:50:33.980Z,1022.27
2019-03-31T03:50:59.890Z,1022.27
2019-03-31T03:51:25.900Z,1022.26
2019-03-31T03:51:51.898Z,1022.28
2019-03-31T03:52:17.903Z,1022.28
2019-03-31T03:52:43.913Z,1022.28
2019-03-31T03:53:09.973Z,1022.29
2019-03-31T03:53:35.914Z,1022.28
2019-03-31T03:54:01.902Z,1022.26
2019-03-31T03:54:27.930Z,1022.28
2019-03-31T03:54:53.906Z,1022.27
2019-03-31T03:55:19.915Z,1022.31
2019-03-31T03:55:45.977Z,1022.33
2019-03-31T03:56:11.899Z,1022.31
2019-03-31T03:56:37.904Z,1022.3
2019-03-31T03:57:03.912Z,1022.31
2019-03-31T03:57:29.906Z,1022.32
2019-03-31T03:57:55.922Z,1022.28
2019-03-31T03:58:22.028Z,1022.32
2019-03-31T03:58:47.914Z,1022.34
2019-03-31T03:59:13.914Z,1022.3
2019-03-31T03:59:39.911Z,1022.33
2019-03-31T04:00:05.917Z,1022.31
2019-03-31T04:00:31.924Z,1022.31
2019-03-31T04:00:57.995Z,1022.31
2019-03-31T04:01:23.916Z,1022.34
2019-03-31T04:01:49.931Z,1022.32
2019-03-31T04:02:15.920Z,1022.32
2019-03-31T04:02:41.917Z,1022.3
2019-03-31T04:03:07.928Z,1022.31
2019-03-31T04:03:34.002Z,1022.34
2019-03-31T04:03:59.915Z,1022.36
2019-03-31T04:04:25.918Z,1022.34
2019-03-31T04:04:51.939Z,1022.33
2019-03-31T04:05:17.927Z,1022.32
2019-03-31T04:05:43.935Z,1022.31
2019-03-31T04:06:09.996Z,1022.33
2019-03-31T04:06:35.929Z,1022.33
2019-03-31T04:07:01.921Z,1022.37
2019-03-31T04:07:27.924Z,1022.38
2019-03-31T04:07:53.924Z,1022.37
2019-03-31T04:08:19.932Z,1022.43
2019-03-31T04:08:45.994Z,1022.41
2019-03-31T04:09:11.926Z,1022.37
2019-03-31T04:09:37.925Z,1022.4
2019-03-31T04:10:03.937Z,1022.36
2019-03-31T04:10:29.927Z,1022.39
2019-03-31T04:10:55.931Z,1022.4
2019-03-31T04:11:22.046Z,1022.42
2019-03-31T04:11:47.932Z,1022.41
2019-03-31T04:12:13.956Z,1022.39
2019-03-31T04:12:39.935Z,1022.38
2019-03-31T04:13:05.934Z,1022.41
2019-03-31T04:13:32.030Z,1022.42
2019-03-31T04:13:58.009Z,1022.4
2019-03-31T04:14:23.939Z,1022.41
2019-03-31T04:14:49.941Z,1022.38
2019-03-31T04:15:15.930Z,1022.39
2019-03-31T04:15:41.935Z,1022.41
2019-03-31T04:16:07.947Z,1022.41
2019-03-31T04:16:34.026Z,1022.42
2019-03-31T04:16:59.937Z,1022.41
2019-03-31T04:17:25.954Z,1022.39
2019-03-31T04:17:51.943Z,1022.41
2019-03-31T04:18:17.942Z,1022.41
2019-03-31T04:18:43.940Z,1022.43
2019-03-31T04:19:09.937Z,1022.44
2019-03-31T04:19:36.065Z,1022.45
2019-03-31T04:20:01.932Z,1022.46
2019-03-31T04:20:27.938Z,1022.47
2019-03-31T04:20:53.945Z,1022.44
2019-03-31T04:21:19.943Z,1022.43
2019-03-31T04:21:45.938Z,1022.44
2019-03-31T04:22:11.964Z,1022.43
2019-03-31T04:22:37.948Z,1022.42
2019-03-31T04:23:04.013Z,1022.44
2019-03-31T04:23:29.946Z,1022.44
2019-03-31T04:23:55.953Z,1022.45
2019-03-31T04:24:21.948Z,1022.47
2019-03-31T04:24:47.946Z,1022.46
2019-03-31T04:25:13.949Z,1022.47
2019-03-31T04:25:39.955Z,1022.46
2019-03-31T04:26:05.954Z,1022.46
2019-03-31T04:26:31.949Z,1022.46
2019-03-31T04:26:57.999Z,1022.48
2019-03-31T04:27:23.947Z,1022.46
2019-03-31T04:27:49.953Z,1022.45
2019-03-31T04:28:15.953Z,1022.46
2019-03-31T04:28:41.954Z,1022.5
2019-03-31T04:29:07.955Z,1022.48
2019-03-31T04:29:33.947Z,1022.47
2019-03-31T04:29:59.951Z,1022.46
2019-03-31T04:30:25.952Z,1022.43
2019-03-31T04:30:51.962Z,1022.46
2019-03-31T04:31:17.958Z,1022.45
2019-03-31T04:31:43.963Z,1022.46
2019-03-31T04:32:09.957Z,1022.46
2019-03-31T04:32:35.955Z,1022.44
2019-03-31T04:33:01.958Z,1022.45
2019-03-31T04:33:27.964Z,1022.46
2019-03-31T04:33:53.959Z,1022.48
2019-03-31T04:34:19.961Z,1022.48
2019-03-31T04:34:45.958Z,1022.5
2019-03-31T04:35:11.964Z,1022.52
2019-03-31T04:35:37.966Z,1022.54
2019-03-31T04:36:03.963Z,1022.53
2019-03-31T04:36:29.969Z,1022.53
2019-03-31T04:36:55.966Z,1022.52
2019-03-31T04:37:21.962Z,1022.53
2019-03-31T04:37:47.967Z,1022.57
2019-03-31T04:38:13.968Z,1022.57
2019-03-31T04:38:39.970Z,1022.57
2019-03-31T04:39:05.965Z,1022.58
2019-03-31T04:39:31.963Z,1022.59
2019-03-31T04:39:57.969Z,1022.59
2019-03-31T04:40:23.975Z,1022.6
2019-03-31T04:40:49.971Z,1022.57
2019-03-31T04:41:15.966Z,1022.57
2019-03-31T04:41:41.976Z,1022.58
2019-03-31T04:42:07.974Z,1022.6
2019-03-31T04:42:33.974Z,1022.6
2019-03-31T04:42:59.975Z,1022.6
2019-03-31T04:43:25.972Z,1022.61
2019-03-31T04:43:51.972Z,1022.61
2019-03-31T04:44:17.979Z,1022.61
2019-03-31T04:44:43.974Z,1022.6
2019-03-31T04:45:09.971Z,1022.62
2019-03-31T04:45:35.974Z,1022.6
2019-03-31T04:46:01.978Z,1022.63
2019-03-31T04:46:27.984Z,1022.63
2019-03-31T04:46:53.979Z,1022.63
2019-03-31T04:47:19.978Z,1022.63
2019-03-31T04:47:45.975Z,1022.64
2019-03-31T04:48:11.979Z,1022.62
2019-03-31T04:48:37.983Z,1022.63
2019-03-31T04:49:03.980Z,1022.64
2019-03-31T04:49:29.982Z,1022.64
2019-03-31T04:49:55.986Z,1022.64
2019-03-31T04:50:21.979Z,1022.62
2019-03-31T04:50:47.989Z,1022.64
2019-03-31T04:51:13.986Z,1022.65
2019-03-31T04:51:39.986Z,1022.66
2019-03-31T04:52:05.985Z,1022.67
2019-03-31T04:52:31.992Z,1022.68
2019-03-31T04:52:57.990Z,1022.71
2019-03-31T04:53:23.984Z,1022.69
2019-03-31T04:53:49.988Z,1022.71
2019-03-31T04:54:15.991Z,1022.7
2019-03-31T04:54:41.989Z,1022.72
2019-03-31T04:55:07.989Z,1022.7
2019-03-31T04:55:33.989Z,1022.7
2019-03-31T04:55:59.988Z,1022.7
2019-03-31T04:56:25.992Z,1022.72
2019-03-31T04:56:51.995Z,1022.72
2019-03-31T04:57:17.997Z,1022.74
2019-03-31T04:57:43.998Z,1022.75
2019-03-31T04:58:09.990Z,1022.77
2019-03-31T04:58:35.995Z,1022.77
2019-03-31T04:59:01.992Z,1022.77
2019-03-31T04:59:27.996Z,1022.78
2019-03-31T04:59:54.001Z,1022.79
2019-03-31T05:00:19.997Z,1022.81
2019-03-31T05:00:45.998Z,1022.8
2019-03-31T05:01:11.996Z,1022.8
2019-03-31T05:01:38.003Z,1022.8
2019-03-31T05:02:04.010Z,1022.85
2019-03-31T05:02:30.003Z,1022.84
2019-03-31T05:02:56.001Z,1022.87
2019-03-31T05:03:22.001Z,1022.87
2019-03-31T05:03:48.038Z,1022.87
2019-03-31T05:04:13.999Z,1022.88
2019-03-31T05:04:40.005Z,1022.91
2019-03-31T05:05:06.015Z,1022.91
2019-03-31T05:05:32.045Z,1022.92
2019-03-31T05:05:58.008Z,1022.95
2019-03-31T05:06:24.002Z,1022.94
2019-03-31T05:06:50.014Z,1022.94
2019-03-31T05:07:16.009Z,1022.94
2019-03-31T05:07:42.016Z,1022.95
2019-03-31T05:08:08.010Z,1022.94
2019-03-31T05:08:34.011Z,1022.98
2019-03-31T05:09:00.011Z,1022.98
2019-03-31T05:09:26.010Z,1022.98
2019-03-31T05:09:52.016Z,1022.99
2019-03-31T05:10:18.019Z,1022.99
2019-03-31T05:10:44.012Z,1023
2019-03-31T05:11:10.011Z,1023
2019-03-31T05:11:36.019Z,1023.05
2019-03-31T05:12:02.010Z,1023.04
2019-03-31T05:12:28.014Z,1023.05
2019-03-31T05:12:54.037Z,1023.07
2019-03-31T05:13:20.018Z,1023.08
2019-03-31T05:13:46.013Z,1023.07
2019-03-31T05:14:12.016Z,1023.07
2019-03-31T05:14:38.013Z,1023.09
2019-03-31T05:15:04.015Z,1023.09
2019-03-31T05:15:30.037Z,1023.09